Tiempo atmosférico en la estación meteorológica de Loja, Granada (580 m.)



Fecha
DESCASC
Temp. máxima en grados centígrados (hora)
DESCASC
Temp. mínima en grados centígrados (hora)
DESCASC
Temp. media en grados centígrados
DESCASC
Racha de viento máxima en m/sg (hora)
DESCASC
Velocidad máxima media en intervalos de 10 minutos(hora)
DESCASC
Precipitaciones diarias en mm
DESCASC
Precipitaciones de 00:00 a 06:00 en mm
DESCASC
Precipitaciones de 06:00 a 12:00 en mm
DESCASC
Precipitaciones de 12:00 a 18:00 en mm
DESCASC
Precipitaciones de 18:00 a 24:00 en mm
DESCASC
23-06-2019 33 (16:40) 17.6 (06:40) 25.3 10.56 (18:50) 4.72 (18:30) 0 0 0 0 0
22-06-2019 33.9 (17:10) 15.8 (05:30) 24.9 9.44 (18:50) 3.61 (18:50) 0 0 0 0 0
21-06-2019 30.7 (17:40) 15.6 (07:10) 23.2 8.06 (18:00) 4.17 (19:20) 0 0 0 0 0
20-06-2019 28 (16:40) 15.1 (00:00) 21.6 10.28 (16:20) 5.28 (20:40) 0 0 0 0 0
19-06-2019 29.4 (17:40) 15.7 (00:00) 22.5 9.17 (18:50) 4.72 (19:50) 0 0 0 0 0
18-06-2019 29.4 (17:30) 13.9 (00:00) 21.6 8.61 (17:40) 4.17 (18:00) 0 0 0 0 0
17-06-2019 32.8 (19:00) 13.6 (00:00) 23.2 7.5 (16:00) 3.61 (16:30) 0 0 0 0 0
16-06-2019 30.4 (17:10) 14 (00:00) 22.2 8.89 (19:10) 4.17 (21:10) 0 0 0 0 0
15-06-2019 28.5 (17:00) 12.2 (00:00) 20.3 9.17 (18:00) 4.72 (18:40) 0 0 0 0 0
14-06-2019 24.4 (15:20) 17.5 (00:00) 20.9 11.11 (17:20) 5.28 (17:20) 0 0 0 0 0
13-06-2019 27.6 (17:40) 14.5 (00:00) 21.1 10 (15:10) 5 (22:10) 0 0 0 0 0
12-06-2019 28.7 (16:30) 14.8 (00:00) 21.8 7.5 (17:10) 3.89 (02:00) 0 0 0 0 0
11-06-2019 26.6 (16:50) 13.8 (00:00) 20.2 10.28 (17:50) 5.28 (13:20) 0 0 0 0 0
10-06-2019 26.4 (16:50) 14.6 (00:00) 20.5 10.83 (00:30) 4.72 (01:00) 0 0 0 0 0
09-06-2019 27.3 (15:40) 17 (00:00) 22.1 11.11 (17:50) 5 (18:10) 0 0 0 0 0
08-06-2019 30.1 (16:50) 14.2 (00:00) 22.2 7.78 (20:40) 3.89 (19:20) 0 0 0 0 0
07-06-2019 26.2 (19:10) 13.9 (00:00) 20.1 10.56 (03:20) 4.17 (16:00) 0 0 0 0 0
06-06-2019 28.1 (17:30) 11.6 (00:00) 19.9 9.44 (19:50) 3.89 (19:50) 0 0 0 0 0
05-06-2019 24.1 (18:30) 14.3 (00:00) 19.2 11.11 (02:50) 5.83 (10:10) 0 0 0 0 0
04-06-2019 32.2 (16:50) 14.1 (00:00) 23.2 12.22 (18:00) 5.28 (19:50) 0 0 0 0 0
03-06-2019 34.6 (16:00) 15.9 (00:00) 25.2 9.44 (17:10) 4.44 (17:50) 0 0 0 0 0
02-06-2019 34.1 (17:20) 15.1 (00:00) 24.6 7.78 (19:00) 3.89 (18:50) 0 0 0 0 0
01-06-2019 33.1 (16:00) 15.8 (00:00) 24.4 7.78 (07:50) 3.61 (04:50) 0 0 0 0 0
31-05-2019 32.5 (17:10) 14.5 (00:00) 23.5 8.33 (07:40) 3.89 (05:50) 0 0 0 0 0
30-05-2019 31.2 (16:20) 15 (00:00) 23.1 7.5 (15:20) 2.78 (17:50) 0 0 0 0 0
29-05-2019 31.6 (18:20) 18 (00:00) 24.8 9.17 (16:50) 3.61 (17:30) 0 0 0 0 0
28-05-2019 32.5 (16:00) 18.2 (00:00) 25.4 9.72 (17:00) 4.44 (16:30) 0 0 0 0 0
27-05-2019 32 (17:30) 14.5 (00:00) 23.3 8.33 (18:10) 3.89 (08:30) 0 0 0 0 0

Gráficas

Temp. máximas Temp. mínimas Temp. medias Precipitaciones Rachas de viento máximas Velocidades máximas media en intervalos de 10 minutos

Datos horarios

Fecha y hora oficial Temperatura (ºC) Velocidad del viento (km/h) Dirección del viento Racha (km/h) Dirección de racha Precipitación (mm) Presión (hPa) Tendencia (hPa) Humedad (%)
2019-06-25 23:00:00 27.6 9 Oeste 23 Oeste 0 947.4 2 32
2019-06-25 22:00:00 30 9 Oeste 29 Oeste 0 946.3 0.9 28
2019-06-25 21:00:00 30.7 12 Oeste 23 Noroeste 0 945.7 0.3 28
2019-06-25 20:00:00 31.9 13 Oeste 36 Oeste 0 945.4 -0.1 27
2019-06-25 19:00:00 32.7 15 Oeste 32 Oeste 0 945.4 -0.3 26
2019-06-25 18:00:00 34.1 12 Oeste 27 Noroeste 0 945.4 -0.9 24
2019-06-25 17:00:00 34.2 11 Norte 27 Norte 0 945.5 -1.3 25
2019-06-25 16:00:00 32.9 10 Norte 28 Noroeste 0 945.7 -1.8 27
2019-06-25 15:00:00 31.7 9 Norte 26 Norte 0 946.3 -1.6 29
2019-06-25 14:00:00 30.9 10 Norte 25 Norte 0 946.8 -1.3 31
2019-06-25 13:00:00 29.3 9 Noroeste 22 Noroeste 0 947.5 -0.7 32
2019-06-25 12:00:00 28.1 7 Norte 14 Nordeste 0 947.9 -0.4 35
2019-06-25 11:00:00 25.2 4 Nordeste 15 Norte 0 948.1 0.1 40
2019-06-25 10:00:00 23.6 6 Este 15 Este 0 948.2 0.6 47
2019-06-25 09:00:00 21.2 4 Nordeste 8 Noroeste 0 948.3 1.3 59
2019-06-25 08:00:00 19.8 5 Noroeste 11 Oeste 0 948 0.9 69
2019-06-25 07:00:00 19.1 6 Oeste 13 Oeste 0 947.6 0.5 74
2019-06-25 06:00:00 19.6 6 Oeste 15 Noroeste 0 947 -0.3 68
2019-06-25 05:00:00 20.7 5 Oeste 14 Oeste 0 947.1 -0.5 58
2019-06-25 04:00:00 21.3 5 Oeste 15 Noroeste 0 947.1 -0.5 53
2019-06-25 03:00:00 21.7 8 Oeste 18 Noroeste 0 947.3 -0.2 50
2019-06-25 02:00:00 22.3 9 Noroeste 15 Noroeste 0 947.6 0.5 47
2019-06-25 01:00:00 22.7 7 Noroeste 18 Oeste 0 947.6 1.3 44
2019-06-25 00:00:00 23.9 13 Noroeste 23 Noroeste 0 947.5 1.6 41
2019-06-24 23:00:00 24.8 9 Oeste 23 Oeste 0 947.1 1.8 40
2019-06-24 22:00:00 26.1 11 Oeste 26 Oeste 0 946.3 1.5 39
2019-06-24 21:00:00 27.7 14 Noroeste 29 Noroeste 0 945.9 1.2 33
2019-06-24 20:00:00 29.5 17 Noroeste 31 Noroeste 0 945.3 0.5 28
2019-06-24 19:00:00 30.4 14 Noroeste 33 Noroeste 0 944.8 -0.1 28
2019-06-24 18:00:00 30.8 13 Noroeste 30 Noroeste 0 944.7 -0.2 27
2019-06-24 17:00:00 30.7 14 Norte 33 Norte 0 944.8 -0.5 28
2019-06-24 16:00:00 31 15 Norte 33 Noroeste 0 944.9 -0.8 29
2019-06-24 15:00:00 29.7 13 Norte 31 Norte 0 944.9 -1.2 31
2019-06-24 14:00:00 28.8 14 Norte 28 Norte 0 945.3 -0.9 34
2019-06-24 13:00:00 28.4 11 Norte 24 Norte 0 945.7 -0.8 37
2019-06-24 12:00:00 27.4 10 Norte 20 Norte 0 946.1 -0.2 38
2019-06-24 11:00:00 26.2 6 Nordeste 15 Norte 0 946.2 0.2 42
2019-06-24 10:00:00 24 4 Nordeste 9 Nordeste 0 946.5 0.6 47
2019-06-24 09:00:00 21.7 2 Nordeste 6 Nordeste 0 946.3 0.3 49
2019-06-24 08:00:00 20.5 0 Calma 5 Noroeste 0 946 0.2 54
2019-06-24 07:00:00 19.9 3 Sur 8 Oeste 0 945.9 0.1 60
2019-06-24 06:00:00 20.7 5 Oeste 14 Oeste 0 946 0 55
2019-06-24 05:00:00 21.3 5 Noroeste 16 Oeste 0 945.8 -0.3 47
2019-06-24 04:00:00 21.8 5 Noroeste 19 Noroeste 0 945.8 -0.5 44
2019-06-24 03:00:00 21.4 6 Noroeste 19 Oeste 0 946 0.1 41
2019-06-24 02:00:00 23.4 9 Noroeste 22 Oeste 0 946.1 0.7 40
2019-06-24 01:00:00 24.5 9 Oeste 21 Oeste 0 946.3 2.1 42
2019-06-24 00:00:00 25.3 10 Oeste 18 Noroeste 0 945.9 2.1 30
2019-06-23 23:00:00 24.8 8 Noroeste 21 Oeste 0 945.4 2.1 29
2019-06-23 22:00:00 28.9 12 Oeste 26 Oeste 0 944.2 1.1 24
2019-06-23 21:00:00 28.8 12 Oeste 34 Oeste 0 943.8 0.6 28
2019-06-23 20:00:00 29.9 14 Oeste 29 Oeste 0 943.3 0.7 29
2019-06-23 19:00:00 31.9 15 Noroeste 38 Noroeste 0 943.1 -0.7 27
2019-06-23 18:00:00 32.3 13 Noroeste 31 Noroeste 0 943.2 -1.1 27
2019-06-23 17:00:00 32 12 Noroeste 32 Noroeste 0 942.6 -2.1 27
2019-06-23 16:00:00 31.7 13 Norte 32 Noroeste 0 943.8 -1.2 27
2019-06-23 15:00:00 31.6 13 Noroeste 31 Noroeste 0 944.3 -0.9 27
2019-06-23 14:00:00 30.5 14 Norte 29 Norte 0 944.7 -1 28
2019-06-23 13:00:00 30.6 6 Norte 14 Noroeste 0 945 -1 29
2019-06-23 12:00:00 27.2 7 Nordeste 18 Nordeste 0 945.2 -1 36
2019-06-23 11:00:00 26.7 6 Sudeste 22 Este 0 945.7 -0.8 40
2019-06-23 10:00:00 23.2 8 Este 19 Sudeste 0 946 -0.2 46
2019-06-23 09:00:00 20.6 8 Nordeste 19 Este 0 946.2 0.3 51
2019-06-23 08:00:00 19.1 0 Calma 6 Este 0 946.5 0.5 56
2019-06-23 07:00:00 18.6 3 Sur 5 Sur 0 946.2 0.2 59
2019-06-23 06:00:00 18.5 0 Calma 5 Sur 0 945.9 -0.5 57
2019-06-23 05:00:00 18.8 0 Calma 4 Norte 0 946 -0.5 54
2019-06-23 04:00:00 20.7 2 Oeste 9 Noroeste 0 946 -0.7 49
2019-06-23 03:00:00 21.8 5 Oeste 11 Oeste 0 946.4 -0.4 49
2019-06-23 02:00:00 22.4 6 Oeste 10 Noroeste 0 946.5 0.5 43
2019-06-23 01:00:00 22.4 2 Oeste 8 Oeste 0 946.7 1.6 43
2019-06-23 00:00:00 22.8 3 Oeste 9 Oeste 0 946.8 2.4 44
2019-06-22 23:00:00 23.6 2 Oeste 11 Oeste 0 946 1.8 40
2019-06-22 22:00:00 27 7 Noroeste 18 Noroeste 0 945.1 0.7 23
2019-06-22 21:00:00 29.5 6 Oeste 22 Noroeste 0 944.4 -0.1 24
2019-06-22 20:00:00 31.4 6 Oeste 30 Oeste 0 944.2 -0.9 22
2019-06-22 19:00:00 31 13 Oeste 34 Oeste 0 944.4 -1 23
2019-06-22 18:00:00 31.3 9 Oeste 24 Oeste 0 944.5 -1.4 21
2019-06-22 17:00:00 32.7 7 Oeste 25 Noroeste 0 945.1 -1.3 21
2019-06-22 16:00:00 31.5 9 Noroeste 24 Oeste 0 945.4 -1.7 20
2019-06-22 15:00:00 32.6 6 Oeste 25 Sudoeste 0 945.9 -1.4 19
2019-06-22 14:00:00 30.9 5 Noroeste 19 Oeste 0 946.4 -1.4 21
2019-06-22 13:00:00 29.4 5 Norte 15 Norte 0 947.1 -1.2 24
2019-06-22 12:00:00 27.2 3 Nordeste 14 Nordeste 0 947.3 -0.7 27
2019-06-22 11:00:00 24.9 4 Nordeste 13 Nordeste 0 947.8 -0.2 30
2019-06-22 10:00:00 21.5 7 Nordeste 12 Nordeste 0 948.3 1.1 33
2019-06-22 09:00:00 19.8 6 Nordeste 14 Norte 0 948 1.1 35
2019-06-22 08:00:00 18 2 Nordeste 16 Este 0 948 1.3 38
2019-06-22 07:00:00 17.4 4 Este 14 Este 0 947.2 0.1 38
2019-06-22 06:00:00 16.1 0 Calma 6 Este 0 946.9 -0.3 39
2019-06-22 05:00:00 17.9 0 Calma 7 Sudeste 0 946.7 -0.9 35
2019-06-22 04:00:00 17.8 0 Calma 8 Oeste 0 947.1 -0.5 34
2019-06-22 03:00:00 21.8 4 Oeste 12 Oeste 0 947.2 -0.1 28
2019-06-22 02:00:00 21.3 3 Oeste 13 Noroeste 0 947.6 0.6 28
2019-06-22 01:00:00 21.5 2 Noroeste 10 Oeste 0 947.6 1.3 26
2019-06-22 00:00:00 24.4 5 Oeste 19 Oeste 0 947.3 1.3 24
2019-06-21 23:00:00 25.1 9 Oeste 21 Oeste 0 947 1.3 23
2019-06-21 22:00:00 25.7 8 Oeste 22 Oeste 0 946.3 0.9 21
2019-06-21 21:00:00 27 9 Noroeste 25 Noroeste 0 946 0.8 20
2019-06-21 20:00:00 27.9 13 Noroeste 28 Oeste 0 945.7 0.2 20
2019-06-21 19:00:00 29.4 10 Oeste 26 Noroeste 0 945.4 -0.5 19
2019-06-21 18:00:00 29.1 12 Noroeste 29 Noroeste 0 945.2 -0.9 20
2019-06-21 17:00:00 29.7 10 Oeste 22 Oeste 0 945.5 -1.2 20
2019-06-21 16:00:00 28.1 11 Noroeste 27 Noroeste 0 945.9 -1.1 23
2019-06-21 15:00:00 28.2 7 Oeste 24 Norte 0 946.1 -1.2 27
2019-06-21 14:00:00 26.4 6 Norte 25 Noroeste 0 946.7 -0.9 30
2019-06-21 13:00:00 25.5 9 Norte 19 Noroeste 0 947 -0.8 35
2019-06-21 12:00:00 23.6 9 Noroeste 23 Norte 0 947.3 -0.5 39
2019-06-21 11:00:00 21.2 8 Noroeste 13 Noroeste 0 947.6 0.1 45
2019-06-21 10:00:00 21.7 4 Norte 13 Noroeste 0 947.8 0.7 48
2019-06-21 09:00:00 18.7 7 Noroeste 15 Noroeste 0 947.8 0.8 56
2019-06-21 08:00:00 17.5 6 Noroeste 10 Oeste 0 947.5 0.6 58
2019-06-21 07:00:00 16.2 6 Noroeste 19 Noroeste 0 947.1 0.5 60
2019-06-21 06:00:00 17.3 10 Oeste 20 Oeste 0 947 0.5 56
2019-06-21 05:00:00 17.8 9 Oeste 20 Oeste 0 946.9 0.2 56
2019-06-21 04:00:00 18 9 Oeste 23 Oeste 0 946.6 -0.3 56
2019-06-21 03:00:00 18.1 11 Noroeste 23 Noroeste 0 946.5 0.2 54
2019-06-21 02:00:00 18.8 8 Oeste 23 Oeste 0 946.7 0.5 50
2019-06-21 01:00:00 19.6 13 Oeste 28 Oeste 0 946.9 1.2 45
2019-06-21 00:00:00 21.6 11 Oeste 26 Oeste 0 946.3 1.1 39
2019-06-20 23:00:00 22 12 Oeste 24 Oeste 0 946.2 1.2 35
2019-06-20 22:00:00 22.5 12 Oeste 27 Oeste 0 945.7 0.6 35
2019-06-20 21:00:00 23.8 16 Noroeste 31 Noroeste 0 945.2 0.1 33
2019-06-20 20:00:00 25 16 Noroeste 35 Noroeste 0 945 -0.1 31
2019-06-20 19:00:00 26.1 13 Noroeste 33 Noroeste 0 945.1 -0.1 30
2019-06-20 18:00:00 26.9 12 Noroeste 36 Norte 0 945.1 -0.4 30
2019-06-20 17:00:00 26 16 Noroeste 37 Noroeste 0 945.1 -1 32
2019-06-20 16:00:00 26.4 14 Noroeste 36 Noroeste 0 945.2 -1.2 34
2019-06-20 15:00:00 25.7 16 Noroeste 36 Noroeste 0 945.5 -0.8 36
2019-06-20 14:00:00 25.3 15 Noroeste 33 Oeste 0 946.1 -0.3 36
2019-06-20 13:00:00 24.7 15 Noroeste 36 Noroeste 0 946.4 -0.2 40
2019-06-20 12:00:00 23.9 9 Noroeste 23 Oeste 0 946.3 -0.4 43
2019-06-20 11:00:00 22.6 8 Noroeste 19 Noroeste 0 946.4 -0.7 47
2019-06-20 10:00:00 20.1 10 Norte 20 Norte 0 946.6 -0.1 53
2019-06-20 09:00:00 18 8 Noroeste 15 Noroeste 0 946.7 0.1 63
2019-06-20 08:00:00 16.8 4 Noroeste 10 Noroeste 0 947.1 0.4 67
2019-06-20 07:00:00 15.8 3 Oeste 17 Noroeste 0 946.7 -0.3 75
2019-06-20 06:00:00 15.1 8 Noroeste 19 Noroeste 0 946.6 -0.7 74
2019-06-20 05:00:00 17.5 8 Noroeste 18 Oeste 0 946.7 -0.8 64
2019-06-20 04:00:00 17.8 10 Oeste 21 Oeste 0 947 -0.2 62
2019-06-20 03:00:00 18.7 10 Oeste 26 Oeste 0 947.3 0.1 59
2019-06-20 02:00:00 19.1 12 Oeste 32 Oeste 0 947.5 0.8 58
2019-06-20 01:00:00 20.8 13 Noroeste 32 Noroeste 0 947.2 0.8 45
2019-06-20 00:00:00 22.5 11 Oeste 22 Oeste 0 947.2 1 38
2019-06-19 23:00:00 24 9 Oeste 21 Oeste 0 946.7 0.9 31
2019-06-19 22:00:00 24.3 7 Oeste 21 Noroeste 0 946.4 0.5 28
2019-06-19 21:00:00 26 10 Noroeste 29 Noroeste 0 946.2 0 26
2019-06-19 20:00:00 27.1 14 Noroeste 30 Noroeste 0 945.8 -0.8 24
2019-06-19 19:00:00 28.4 15 Noroeste 33 Noroeste 0 945.9 -1 22
2019-06-19 18:00:00 28.7 13 Noroeste 30 Noroeste 0 946.2 -1.2 22
2019-06-19 17:00:00 28.2 12 Norte 31 Noroeste 0 946.6 -1.4 22
2019-06-19 16:00:00 27.2 13 Norte 28 Noroeste 0 946.9 -1.3 25
2019-06-19 15:00:00 27.3 9 Norte 22 Norte 0 947.4 -1 29
2019-06-19 14:00:00 24.8 13 Noroeste 27 Noroeste 0 948 -0.2 37
2019-06-19 13:00:00 23.8 9 Oeste 25 Oeste 0 948.2 -0.6 40
2019-06-19 12:00:00 22 8 Oeste 25 Oeste 0 948.4 -0.4 46
2019-06-19 11:00:00 19.3 12 Noroeste 25 Noroeste 0 948.2 -0.4 56
2019-06-19 10:00:00 18.5 9 Noroeste 20 Noroeste 0 948.8 0.6 61
2019-06-19 09:00:00 17.3 10 Noroeste 18 Noroeste 0 948.8 0.6 71
2019-06-19 08:00:00 16 7 Noroeste 15 Noroeste 0 948.6 0.4 75
2019-06-19 07:00:00 15.8 0 Calma 14 Oeste 0 948.2 0 80
2019-06-19 06:00:00 16.2 9 Noroeste 18 Noroeste 0 948.2 0.1 80
2019-06-19 05:00:00 17 9 Oeste 22 Oeste 0 948.2 -0.3 76
2019-06-19 04:00:00 17.3 9 Noroeste 23 Noroeste 0 948.2 -0.3 72
2019-06-19 03:00:00 17.5 12 Noroeste 22 Noroeste 0 948.1 -0.7 69
2019-06-19 02:00:00 18.6 10 Oeste 22 Oeste 0 948.5 0.1 65
2019-06-19 01:00:00 19.4 13 Oeste 29 Oeste 0 948.5 0.6 59
2019-06-19 00:00:00 20.4 12 Noroeste 29 Noroeste 0 948.8 1.5 53
2019-06-18 23:00:00 21.6 10 Oeste 26 Oeste 0 948.4 1.6 44
2019-06-18 22:00:00 22.9 8 Oeste 27 Norte 0 947.9 1.4 37
2019-06-18 21:00:00 24.6 11 Noroeste 26 Noroeste 0 947.3 0.7 33
2019-06-18 20:00:00 26.4 12 Noroeste 29 Norte 0 946.8 0.3 31
2019-06-18 19:00:00 27.5 13 Norte 30 Norte 0 946.5 -0.2 31
2019-06-18 18:00:00 27.8 15 Norte 31 Norte 0 946.6 -0.4 31
2019-06-18 17:00:00 28.6 13 Norte 28 Norte 0 946.5 -0.9 31
2019-06-18 16:00:00 28.3 12 Norte 27 Norte 0 946.7 -0.9 30
2019-06-18 15:00:00 27.9 11 Noroeste 26 Noroeste 0 947 -0.9 31
2019-06-18 14:00:00 27.1 8 Norte 22 Noroeste 0 947.4 -0.4 30
2019-06-18 13:00:00 25.8 10 Noroeste 22 Noroeste 0 947.6 -0.2 31
2019-06-18 12:00:00 25.2 10 Noroeste 28 Noroeste 0 947.9 0.1 32
2019-06-18 11:00:00 23.3 6 Norte 20 Noroeste 0 947.8 0 31
2019-06-18 10:00:00 20.7 5 Nordeste 10 Nordeste 0 947.8 0.2 35
2019-06-18 09:00:00 18.8 2 Nordeste 11 Norte 0 947.8 0.5 37
2019-06-18 08:00:00 17.6 0 Calma 22 Este 0 947.8 0.2 38
2019-06-18 07:00:00 14.8 4 Este 11 Este 0 947.6 0 43
2019-06-18 06:00:00 16.5 3 Este 9 Este 0 947.3 -0.2 40
2019-06-18 05:00:00 16.9 0 Calma 5 Este 0 947.6 -0.2 40
2019-06-18 04:00:00 17.8 0 Calma 7 Norte 0 947.6 -0.6 42
2019-06-18 03:00:00 19.9 2 Sudeste 8 Sudeste 0 947.5 -0.6 38
2019-06-18 02:00:00 20.5 5 Sudoeste 9 Oeste 0 947.8 0.4 46
2019-06-18 01:00:00 21.8 4 Oeste 12 Noroeste 0 948.2 1.3 36
2019-06-18 00:00:00 23.8 5 Oeste 12 Sur 0 948.1 1.6 22
2019-06-17 23:00:00 23.6 0 Calma 6 Sur 0 947.4 1.3 19
2019-06-17 22:00:00 24.5 0 Calma 9 Norte 0 946.9 1.1 18
2019-06-17 21:00:00 28 4 Este 14 Este 0 946.5 0.3 17
2019-06-17 20:00:00 30 8 Noroeste 17 Noroeste 0 946.1 -0.3 16
2019-06-17 19:00:00 31.9 3 Sur 21 Sur 0 945.8 -1.2 16
2019-06-17 18:00:00 31 8 Noroeste 23 Noroeste 0 946.2 -1.5 20
2019-06-17 17:00:00 30.2 9 Noroeste 25 Noroeste 0 946.4 -2 21
2019-06-17 16:00:00 30.5 11 Oeste 27 Noroeste 0 947 -2 21
2019-06-17 15:00:00 29.9 10 Noroeste 24 Noroeste 0 947.7 -1.7 21
2019-06-17 14:00:00 29 13 Noroeste 23 Norte 0 948.4 -1 23
2019-06-17 13:00:00 27.1 5 Norte 15 Noroeste 0 949 -0.7 28
2019-06-17 12:00:00 24.2 6 Nordeste 15 Nordeste 0 949.4 -0.7 34
2019-06-17 11:00:00 21.6 9 Nordeste 24 Este 0 949.4 -0.7 38
2019-06-17 10:00:00 18.9 10 Nordeste 23 Norte 0 949.7 -0.1 41
2019-06-17 09:00:00 18.2 5 Nordeste 20 Este 0 950.1 0.2 44
2019-06-17 08:00:00 16.5 5 Este 17 Este 0 950.1 0.5 47
2019-06-17 07:00:00 15 4 Este 17 Norte 0 949.8 -0.1 49
2019-06-17 06:00:00 15.6 6 Este 19 Norte 0 949.9 -0.5 47
2019-06-17 05:00:00 16.1 5 Nordeste 13 Este 0 949.6 -1.3 44
2019-06-17 04:00:00 16.2 0 Calma 6 Sudeste 0 949.9 -1 41
2019-06-17 03:00:00 16.6 0 Calma 5 Sur 0 950.4 -0.5 38
2019-06-17 02:00:00 17.8 3 Sudoeste 6 Oeste 0 950.9 0.6 37
2019-06-17 01:00:00 18.6 0 Calma 9 Oeste 0 950.9 1.6 35
2019-06-17 00:00:00 19.1 0 Calma 12 Oeste 0 950.9 2.2 34
2019-06-16 23:00:00 20.4 0 Calma 13 Noroeste 0 950.3 1.9 31
2019-06-16 22:00:00 21.6 5 Noroeste 31 Oeste 0 949.3 1.2 26
2019-06-16 21:00:00 24.4 13 Noroeste 32 Noroeste 0 948.7 0.7 24
2019-06-16 20:00:00 27.7 12 Oeste 32 Oeste 0 948.4 0.1 18
2019-06-16 19:00:00 28.9 11 Oeste 27 Oeste 0 948.1 -0.4 21
2019-06-16 18:00:00 28.6 11 Oeste 28 Oeste 0 948 -0.7 20
2019-06-16 17:00:00 30.2 8 Noroeste 26 Noroeste 0 948.3 -0.8 20
2019-06-16 16:00:00 28.7 10 Noroeste 24 Norte 0 948.5 -0.9 20
2019-06-16 15:00:00 29.4 6 Norte 19 Noroeste 0 948.7 -0.7 21
2019-06-16 14:00:00 29.5 3 Norte 14 Nordeste 0 949.1 -0.8 23
2019-06-16 13:00:00 25.3 4 Norte 15 Nordeste 0 949.4 0 26
2019-06-16 12:00:00 25 4 Este 15 Este 0 949.4 0.1 28
2019-06-16 11:00:00 22.6 5 Este 14 Sudeste 0 949.9 0.8 30
2019-06-16 10:00:00 18.8 7 Nordeste 22 Este 0 949.4 0.6 34
2019-06-16 09:00:00 17 7 Este 20 Este 0 949.3 1.1 36
2019-06-16 08:00:00 16.4 10 Este 24 Sudeste 0 949.1 0.8 37
2019-06-16 07:00:00 16.3 6 Sudeste 21 Sudeste 0 948.8 0.5 38
2019-06-16 06:00:00 16.7 5 Sudeste 15 Sudeste 0 948.2 -0.7 35
2019-06-16 05:00:00 16.7 5 Este 20 Este 0 948.3 -1.1 34
2019-06-16 04:00:00 16.6 2 Nordeste 8 Norte 0 948.3 -1.6 35
2019-06-16 03:00:00 17.8 0 Calma 6 Sur 0 948.9 -1.1 32
2019-06-16 02:00:00 19.8 0 Calma 5 Sudoeste 0 949.4 -0.2 27
2019-06-16 01:00:00 21.4 0 Calma 6 Sudoeste 0 949.9 0.9 25
2019-06-16 00:00:00 22 3 Oeste 15 Oeste 0 950 1.4 24
2019-06-15 23:00:00 23.5 8 Oeste 19 Oeste 0 949.6 1.3 24
2019-06-15 22:00:00 24 8 Oeste 21 Noroeste 0 949 1.1 23
2019-06-15 21:00:00 25.2 13 Noroeste 26 Noroeste 0 948.6 0.4 21
2019-06-15 20:00:00 26.6 12 Noroeste 29 Noroeste 0 948.3 0 21
2019-06-15 19:00:00 27.7 12 Noroeste 31 Noroeste 0 947.9 -0.8 21
2019-06-15 18:00:00 27.7 17 Noroeste 33 Noroeste 0 948.2 -0.8 21
2019-06-15 17:00:00 27.6 14 Noroeste 31 Noroeste 0 948.3 -1.4 21
2019-06-15 16:00:00 27.1 15 Noroeste 30 Noroeste 0 948.7 -1.5 22
2019-06-15 15:00:00 26.3 11 Noroeste 29 Norte 0 949 -1.6 25
2019-06-15 14:00:00 25 7 Noroeste 20 Noroeste 0 949.7 -1 28
2019-06-15 13:00:00 23.2 7 Norte 15 Norte 0 950.2 -0.6 32
2019-06-15 12:00:00 21.8 3 Nordeste 16 Nordeste 0 950.6 -0.3 37
2019-06-15 11:00:00 18.9 6 Nordeste 18 Este 0 950.7 0 44
2019-06-15 10:00:00 17.2 8 Nordeste 16 Este 0 950.8 0.6 49
2019-06-15 09:00:00 15.1 3 Nordeste 7 Nordeste 0 950.9 0.7 53
2019-06-15 08:00:00 13.4 0 Calma 4 Este 0 950.7 0.9 56
2019-06-15 07:00:00 12.7 0 Calma 6 Noroeste 0 950.2 0.2 58
2019-06-15 06:00:00 12.5 2 Oeste 12 Noroeste 0 950.2 -0.2 60
2019-06-15 05:00:00 14 6 Oeste 15 Oeste 0 949.8 -0.9 55
2019-06-15 04:00:00 14.3 6 Oeste 19 Noroeste 0 950 -0.7 56
2019-06-15 03:00:00 14.3 9 Noroeste 25 Oeste 0 950.4 0.2 55
2019-06-15 02:00:00 15.2 11 Oeste 26 Oeste 0 950.7 1.1 52
2019-06-15 01:00:00 16.2 10 Oeste 31 Oeste 0 950.7 1.7 47
2019-06-15 00:00:00 17.7 9 Oeste 27 Sudoeste 0 950.2 2.1 41
2019-06-14 23:00:00 18.2 10 Oeste 23 Oeste 0 949.6 1.9 37
2019-06-14 22:00:00 18.9 9 Oeste 27 Noroeste 0 949 1.8 35
2019-06-14 21:00:00 20.2 13 Noroeste 28 Noroeste 0 948.1 1.2 32
2019-06-14 20:00:00 21.4 14 Noroeste 32 Noroeste 0 947.7 1 31
2019-06-14 19:00:00 22.4 15 Noroeste 33 Noroeste 0 947.2 0.7 31
2019-06-14 18:00:00 23.4 18 Noroeste 40 Noroeste 0 946.9 0.1 31
2019-06-14 17:00:00 23.8 14 Noroeste 35 Noroeste 0 946.7 -0.2 31
2019-06-14 16:00:00 23.3 19 Noroeste 39 Noroeste 0 946.5 -0.3 31
2019-06-14 15:00:00 23.5 14 Noroeste 33 Noroeste 0 946.8 0.2 33
2019-06-14 14:00:00 22.5 12 Noroeste 35 Noroeste 0 946.9 1 37
2019-06-14 13:00:00 21.6 13 Noroeste 28 Norte 0 946.8 1.1 44
2019-06-14 12:00:00 20.6 12 Noroeste 29 Noroeste 0 946.6 1.1 49
2019-06-14 11:00:00 21.2 4 Noroeste 17 Noroeste 0 945.9 0.6 47
2019-06-14 10:00:00 20.4 8 Norte 26 Noroeste 0 945.7 0.8 56
2019-06-14 09:00:00 18.4 12 Noroeste 20 Oeste 0 945.5 1 65
2019-06-14 08:00:00 18.4 8 Noroeste 20 Noroeste 0 945.3 1.2 64
2019-06-14 07:00:00 18.3 6 Noroeste 15 Noroeste 0 944.9 0.5 64
2019-06-14 06:00:00 18.4 9 Noroeste 19 Noroeste 0 944.5 0.5 63
2019-06-14 05:00:00 18.8 5 Oeste 14 Noroeste 0 944.1 -0.3 59
2019-06-14 04:00:00 19.2 0 Calma 7 Nordeste 0 944.4 0 56
2019-06-14 03:00:00 19.4 3 Norte 17 Sudoeste 0 944 0.3 53
2019-06-14 02:00:00 20.8 11 Oeste 25 Sudoeste 0 944.4 1.4 46
2019-06-14 01:00:00 20.8 14 Sudoeste 30 Oeste 0 944.4 2.6 48
2019-06-14 00:00:00 21.2 15 Oeste 33 Oeste 0 943.7 2.8 47
2019-06-13 23:00:00 22.3 9 Oeste 36 Oeste 0 943 2.4 44
2019-06-13 22:00:00 23.5 15 Oeste 35 Oeste 0 941.8 1.5 40
2019-06-13 21:00:00 23.8 12 Oeste 31 Oeste 0 940.9 0.5 40
2019-06-13 20:00:00 24.4 13 Oeste 32 Oeste 0 940.6 0.2 39
2019-06-13 19:00:00 25.8 12 Oeste 35 Oeste 0 940.3 -0.7 38
2019-06-13 18:00:00 26.1 13 Oeste 33 Oeste 0 940.4 -0.8 36
2019-06-13 17:00:00 26 13 Noroeste 33 Norte 0 940.4 -1.1 36
2019-06-13 16:00:00 25.4 10 Noroeste 36 Nordeste 0 941 -0.8 37
2019-06-13 15:00:00 26.2 10 Noroeste 31 Norte 0 941.2 -1.1 37
2019-06-13 14:00:00 24.5 10 Norte 27 Noroeste 0 941.5 -1.1 38
2019-06-13 13:00:00 23.6 9 Noroeste 23 Noroeste 0 941.8 -0.7 38
2019-06-13 12:00:00 22.1 9 Noroeste 17 Noroeste 0 942.3 -0.4 43
2019-06-13 11:00:00 21 6 Nordeste 17 Norte 0 942.6 -0.1 50
2019-06-13 10:00:00 18.8 9 Nordeste 17 Norte 0 942.5 0 58
2019-06-13 09:00:00 16.4 8 Nordeste 18 Este 0 942.7 0.4 66
2019-06-13 08:00:00 15.4 9 Este 21 Sudeste 0 942.7 0.1 68
2019-06-13 07:00:00 14.8 5 Nordeste 18 Este 0 942.5 -0.2 68
2019-06-13 06:00:00 15.4 8 Sudeste 16 Norte 0 942.3 -1 66
2019-06-13 05:00:00 14.9 0 Calma 5 Sudeste 0 942.6 -0.7 65
2019-06-13 04:00:00 15.7 0 Calma 3 Sur 0 942.7 -0.6 62
2019-06-13 03:00:00 16.2 0 Calma 5 Oeste 0 943.3 0.2 59
2019-06-13 02:00:00 16.5 3 Sudoeste 12 Oeste 0 943.3 0.6 58
2019-06-13 01:00:00 17.5 5 Oeste 11 Oeste 0 943.3 1.5 53
2019-06-13 00:00:00 18.6 3 Sudoeste 9 Noroeste 0 943.1 1.7 49
2019-06-12 23:00:00 19.3 0 Calma 11 Nordeste 0 942.7 1.5 44
2019-06-12 22:00:00 22.2 4 Sudoeste 23 Sudoeste 0 941.8 0.7 32
2019-06-12 21:00:00 23.8 10 Sudoeste 24 Oeste 0 941.4 0 32
2019-06-12 20:00:00 25.5 7 Oeste 24 Oeste 0 941.2 -0.6 31
2019-06-12 19:00:00 26 9 Oeste 23 Oeste 0 941.1 -1.2 31
2019-06-12 18:00:00 26.2 12 Oeste 27 Oeste 0 941.4 -1.5 32
2019-06-12 17:00:00 26.6 9 Oeste 24 Noroeste 0 941.8 -1.7 31
2019-06-12 16:00:00 27 9 Noroeste 20 Oeste 0 942.3 -1.7 31
2019-06-12 15:00:00 25 4 Norte 17 Noroeste 0 942.9 -1.5 33
2019-06-12 14:00:00 23.5 6 Norte 19 Noroeste 0 943.5 -0.9 35
2019-06-12 13:00:00 23.9 7 Nordeste 18 Nordeste 0 944 -0.4 37
2019-06-12 12:00:00 21.7 6 Nordeste 17 Nordeste 0 944.4 0.1 41
2019-06-12 11:00:00 20.6 5 Nordeste 17 Nordeste 0 944.4 0.2 45
2019-06-12 10:00:00 19.8 7 Este 16 Este 0 944.4 0.4 49
2019-06-12 09:00:00 18.8 4 Nordeste 14 Sudeste 0 944.3 0.9 49
2019-06-12 08:00:00 16 3 Nordeste 7 Nordeste 0 944.2 0.9 56
2019-06-12 07:00:00 14.9 0 Calma 9 Norte 0 944 1.1 63
2019-06-12 06:00:00 15.6 5 Oeste 15 Noroeste 0 943.4 0.7 60
2019-06-12 05:00:00 15.6 6 Noroeste 15 Noroeste 0 943.3 0.6 56
2019-06-12 04:00:00 16.1 9 Noroeste 23 Noroeste 0 942.9 -0.2 49
2019-06-12 03:00:00 18.7 10 Noroeste 25 Noroeste 0 942.7 -0.5 44
2019-06-12 02:00:00 19.6 14 Noroeste 26 Noroeste 0 942.7 -0.3 41
2019-06-12 01:00:00 20.4 12 Oeste 27 Oeste 0 943.1 0.9 38
2019-06-12 00:00:00 20.9 9 Oeste 25 Oeste 0 943.2 1.1 36
2019-06-11 23:00:00 22.7 7 Oeste 13 Oeste 0 943 1.4 27
2019-06-11 22:00:00 23.3 5 Oeste 19 Noroeste 0 942.2 0.8 26
2019-06-11 21:00:00 24.4 8 Noroeste 26 Noroeste 0 942.1 0.2 26
2019-06-11 20:00:00 25.4 9 Noroeste 31 Noroeste 0 941.6 0 27
2019-06-11 19:00:00 25.8 14 Noroeste 32 Noroeste 0 941.4 -0.7 28
2019-06-11 18:00:00 25.5 15 Noroeste 37 Noroeste 0 941.9 -0.1 28
2019-06-11 17:00:00 24.6 16 Noroeste 33 Norte 0 941.6 -1.3 27
2019-06-11 16:00:00 24.9 13 Noroeste 32 Noroeste 0 942.1 -0.8 28
2019-06-11 15:00:00 23.9 13 Noroeste 33 Noroeste 0 942 -1 26
2019-06-11 14:00:00 24.1 12 Noroeste 37 Norte 0 942.9 -0.3 28
2019-06-11 13:00:00 23.2 15 Norte 31 Norte 0 942.9 -0.5 28
2019-06-11 12:00:00 23.2 11 Noroeste 24 Noroeste 0 943 -1 31
2019-06-11 11:00:00 20.7 5 Nordeste 17 Nordeste 0 943.2 -0.7 39
2019-06-11 10:00:00 18.7 9 Nordeste 21 Norte 0 943.4 -0.7 45
2019-06-11 09:00:00 16.6 5 Nordeste 10 Nordeste 0 944 -0.2 49
2019-06-11 08:00:00 15.8 2 Nordeste 8 Este 0 943.9 -0.9 50
2019-06-11 07:00:00 15.3 2 Oeste 13 Oeste 0 944.1 -0.8 53
2019-06-11 06:00:00 16 6 Oeste 14 Oeste 0 944.2 -1.2 51
2019-06-11 05:00:00 14.6 8 Oeste 15 Oeste 0 944.8 -1.2 53
2019-06-11 04:00:00 15.5 11 Noroeste 21 Oeste 0 944.9 -1.4 48
2019-06-11 03:00:00 16.4 13 Oeste 25 Noroeste 0 945.4 -1.3 46
2019-06-11 02:00:00 17.5 15 Oeste 30 Noroeste 0 946 -0.6 44
2019-06-11 01:00:00 18.6 14 Oeste 27 Oeste 0 946.3 0.8 40
2019-06-11 00:00:00 19.5 11 Noroeste 28 Noroeste 0 946.7 1.3 37
2019-06-10 23:00:00 20.8 10 Oeste 23 Oeste 0 946.6 1.1 33
2019-06-10 22:00:00 23 6 Oeste 15 Oeste 0 945.5 0 25
2019-06-10 21:00:00 23.9 6 Oeste 27 Noroeste 0 945.4 -0.3 24
2019-06-10 20:00:00 25.4 9 Oeste 29 Noroeste 0 945.5 -0.4 22
2019-06-10 19:00:00 25.3 14 Noroeste 30 Noroeste 0 945.5 -0.9 20
2019-06-10 18:00:00 25.5 12 Noroeste 32 Noroeste 0 945.7 -1.1 21
2019-06-10 17:00:00 25.3 12 Noroeste 30 Noroeste 0 945.9 -1.4 23
2019-06-10 16:00:00 24.9 12 Noroeste 32 Norte 0 946.4 -1.6 24
2019-06-10 15:00:00 25.1 11 Noroeste 28 Noroeste 0 946.8 -1.4 27
2019-06-10 14:00:00 23.8 13 Noroeste 27 Noroeste 0 947.3 -0.9 29
2019-06-10 13:00:00 22.3 10 Noroeste 26 Noroeste 0 948 -0.8 31
2019-06-10 12:00:00 21.5 12 Noroeste 30 Noroeste 0 948.2 -0.5 32
2019-06-10 11:00:00 21.2 7 Noroeste 19 Noroeste 0 948.2 -0.2 35
2019-06-10 10:00:00 19.1 7 Noroeste 15 Noroeste 0 948.8 0.3 43
2019-06-10 09:00:00 17.2 9 Noroeste 15 Noroeste 0 948.7 0.1 49
2019-06-10 08:00:00 16.4 3 Noroeste 7 Noroeste 0 948.4 -0.5 49
2019-06-10 07:00:00 15.4 0 Calma 17 Oeste 0 948.5 -0.6 51
2019-06-10 06:00:00 15.8 6 Noroeste 20 Oeste 0 948.6 -0.6 48
2019-06-10 05:00:00 16.7 6 Oeste 18 Noroeste 0 948.9 -0.3 44
2019-06-10 04:00:00 18 8 Oeste 26 Oeste 0 949.1 -0.3 40
2019-06-10 03:00:00 18.6 10 Oeste 30 Oeste 0 949.2 -0.3 35
2019-06-10 02:00:00 19.1 13 Oeste 33 Oeste 0 949.2 -0.3 33
2019-06-10 01:00:00 19.8 17 Oeste 39 Oeste 0 949.4 0.8 30
2019-06-10 00:00:00 21 17 Oeste 34 Oeste 0 949.5 1.5 27
2019-06-09 23:00:00 21 10 Oeste 26 Oeste 0 949.5 1.7 24
2019-06-09 22:00:00 22.5 8 Oeste 22 Oeste 0 948.6 1 24
2019-06-09 21:00:00 23.7 9 Noroeste 27 Noroeste 0 948 0.4 24
2019-06-09 20:00:00 24.9 12 Noroeste 33 Noroeste 0 947.8 0 24
2019-06-09 19:00:00 25.4 16 Noroeste 37 Noroeste 0 947.6 -0.4 24
2019-06-09 18:00:00 25 17 Noroeste 40 Noroeste 0 947.6 -0.6 28
2019-06-09 17:00:00 25.5 15 Noroeste 32 Noroeste 0 947.8 -1.1 29
2019-06-09 16:00:00 24.3 16 Noroeste 34 Noroeste 0 948 -1.1 33
2019-06-09 15:00:00 25.3 12 Noroeste 26 Norte 0 948.2 -1.2 32
2019-06-09 14:00:00 23.6 10 Norte 26 Noroeste 0 948.9 -0.8 38
2019-06-09 13:00:00 23.7 8 Noroeste 22 Noroeste 0 949.1 -0.9 39
2019-06-09 12:00:00 21.5 9 Noroeste 18 Noroeste 0 949.4 -0.4 48
2019-06-09 11:00:00 20.6 6 Noroeste 16 Noroeste 0 949.7 0.1 55
2019-06-09 10:00:00 19 7 Noroeste 12 Noroeste 0 950 0.1 66
2019-06-09 09:00:00 18.5 4 Noroeste 10 Oeste 0 949.8 0.2 71
2019-06-09 08:00:00 17.8 2 Sudoeste 12 Oeste 0 949.6 0.1 75
2019-06-09 07:00:00 17.3 5 Oeste 12 Oeste 0 949.9 0.2 78
2019-06-09 06:00:00 17.3 5 Noroeste 13 Noroeste 0 949.6 -0.2 75
2019-06-09 05:00:00 17.6 6 Noroeste 12 Noroeste 0 949.5 -0.9 74
2019-06-09 04:00:00 18.1 4 Oeste 14 Noroeste 0 949.7 -0.7 70
2019-06-09 03:00:00 18.5 6 Noroeste 13 Oeste 0 949.8 -0.5 67
2019-06-09 02:00:00 19 5 Oeste 12 Oeste 0 950.4 0.3 63
2019-06-09 01:00:00 19.4 0 Calma 8 Sudoeste 0 950.4 1.5 59
2019-06-09 00:00:00 19.7 3 Oeste 12 Noroeste 0 950.3 1.9 59
2019-06-08 23:00:00 20.1 6 Noroeste 21 Noroeste 0 950.1 2.7 56
2019-06-08 22:00:00 21.1 12 Noroeste 21 Noroeste 0 948.9 1.5 49
2019-06-08 21:00:00 22.4 4 Noroeste 28 Noroeste 0 948.4 1 47
2019-06-08 20:00:00 25.6 6 Noroeste 28 Oeste 0 947.4 -0.4 38
2019-06-08 19:00:00 27.2 9 Oeste 22 Oeste 0 947.4 -0.7 32
2019-06-08 18:00:00 27.2 12 Noroeste 22 Noroeste 0 947.4 -0.9 31
2019-06-08 17:00:00 28.4 9 Noroeste 25 Noroeste 0 947.8 -0.9 29
2019-06-08 16:00:00 27.5 10 Noroeste 26 Oeste 0 948.1 -1.1 28
2019-06-08 15:00:00 28.5 10 Oeste 25 Oeste 0 948.3 -1.2 28
2019-06-08 14:00:00 27.2 9 Noroeste 22 Noroeste 0 948.7 -0.8 28
2019-06-08 13:00:00 26.2 3 Norte 11 Nordeste 0 949.2 -0.3 30
2019-06-08 12:00:00 24.5 5 Este 16 Este 0 949.5 -0.1 33
2019-06-08 11:00:00 22.6 6 Este 17 Este 0 949.5 0.4 33
2019-06-08 10:00:00 20.3 5 Nordeste 18 Norte 0 949.5 0.5 35
2019-06-08 09:00:00 18.1 7 Nordeste 19 Este 0 949.6 0.5 37
2019-06-08 08:00:00 16.4 5 Nordeste 13 Este 0 949.1 0.2 38
2019-06-08 07:00:00 15.3 7 Sudeste 17 Este 0 949 0.3 40
2019-06-08 06:00:00 15.4 4 Este 18 Sudeste 0 949.1 -0.2 38
2019-06-08 05:00:00 15.7 4 Este 13 Este 0 948.9 -0.4 37
2019-06-08 04:00:00 15.2 0 Calma 6 Oeste 0 948.7 -0.6 36
2019-06-08 03:00:00 16.4 0 Calma 7 Noroeste 0 949.3 -0.3 34
2019-06-08 02:00:00 17.6 0 Calma 8 Oeste 0 949.3 0.1 31
2019-06-08 01:00:00 18.5 0 Calma 6 Oeste 0 949.3 0.5 31
2019-06-08 00:00:00 20 3 Oeste 11 Oeste 0 949.6 1.6 29
2019-06-07 23:00:00 21.5 6 Oeste 17 Oeste 0 949.2 1.6 27
2019-06-07 22:00:00 22 8 Oeste 17 Oeste 0 948.8 1.4 28
2019-06-07 21:00:00 23.2 10 Noroeste 23 Noroeste 0 948 0.6 28
2019-06-07 20:00:00 24.7 8 Noroeste 23 Oeste 0 947.6 0 28
2019-06-07 19:00:00 25.9 8 Noroeste 22 Noroeste 0 947.4 -0.2 27
2019-06-07 18:00:00 25 9 Noroeste 31 Noroeste 0 947.4 -0.3 28
2019-06-07 17:00:00 23.6 14 Noroeste 30 Norte 0 947.6 -0.5 33
2019-06-07 16:00:00 23.1 15 Noroeste 33 Noroeste 0 947.6 -0.8 40
2019-06-07 15:00:00 22 12 Noroeste 31 Norte 0 947.7 -0.3 44
2019-06-07 14:00:00 22.1 10 Noroeste 25 Norte 0 948.1 0.3 46
2019-06-07 13:00:00 20.4 12 Noroeste 30 Noroeste 0 948.4 0.5 49
2019-06-07 12:00:00 18.8 9 Noroeste 22 Noroeste 0 948 0.4 52
2019-06-07 11:00:00 19.2 10 Noroeste 25 Norte 0 947.8 0.7 51
2019-06-07 10:00:00 18.2 5 Nordeste 13 Nordeste 0 947.9 1.2 54
2019-06-07 09:00:00 15.8 3 Nordeste 12 Nordeste 0 947.6 1.5 58
2019-06-07 08:00:00 15.7 3 Nordeste 6 Nordeste 0 947.1 1.4 58
2019-06-07 07:00:00 15.1 0 Calma 22 Oeste 0 946.7 1.1 61
2019-06-07 06:00:00 15.8 5 Oeste 19 Oeste 0 946.1 0.6 59
2019-06-07 05:00:00 15.8 10 Oeste 28 Oeste 0 945.7 0.1 57
2019-06-07 04:00:00 16.3 9 Oeste 38 Oeste 0 945.6 0.1 45
2019-06-07 03:00:00 16.7 9 Oeste 33 Oeste 0 945.5 0.4 40
2019-06-07 02:00:00 16.7 10 Oeste 26 Noroeste 0 945.6 0.9 34
2019-06-07 01:00:00 16.3 7 Noroeste 21 Noroeste 0 945.5 1.4 31
2019-06-07 00:00:00 17.5 9 Noroeste 15 Oeste 0 945.1 1.8 29
2019-06-06 23:00:00 18.7 5 Oeste 21 Noroeste 0 944.7 2.1 28
2019-06-06 22:00:00 20.2 9 Noroeste 21 Oeste 0 944.1 2 28
2019-06-06 21:00:00 22.4 10 Noroeste 27 Noroeste 0 943.3 0.9 27
2019-06-06 20:00:00 25 10 Noroeste 34 Noroeste 0 942.6 -0.2 24
2019-06-06 19:00:00 26.9 9 Oeste 23 Oeste 0 942.1 -1.2 22
2019-06-06 18:00:00 27 9 Oeste 26 Oeste 0 942.4 -1.3 21
2019-06-06 17:00:00 27.3 5 Oeste 28 Noroeste 0 942.8 -1 21
2019-06-06 16:00:00 27 7 Oeste 26 Norte 0 943.3 -1.3 22
2019-06-06 15:00:00 26.4 10 Noroeste 24 Noroeste 0 943.7 -1.4 24
2019-06-06 14:00:00 25.9 8 Noroeste 33 Noroeste 0 943.8 -1.8 25
2019-06-06 13:00:00 23.3 5 Norte 15 Norte 0 944.6 -1.4 32
2019-06-06 12:00:00 21.1 6 Nordeste 20 Este 0 945.1 -1.2 38
2019-06-06 11:00:00 19.5 8 Nordeste 16 Este 0 945.6 -0.9 43
2019-06-06 10:00:00 16.9 6 Nordeste 12 Norte 0 946 -0.3 49
2019-06-06 09:00:00 14.3 4 Nordeste 8 Norte 0 946.3 0.2 53
2019-06-06 08:00:00 13.2 2 Nordeste 6 Noroeste 0 946.5 0.4 60
2019-06-06 07:00:00 12.1 5 Noroeste 10 Noroeste 0 946.3 0.1 64
2019-06-06 06:00:00 12.3 3 Oeste 17 Oeste 0 946.1 -0.3 62
2019-06-06 05:00:00 13.1 5 Noroeste 10 Noroeste 0 946.1 -0.5 59
2019-06-06 04:00:00 13.6 4 Oeste 16 Noroeste 0 946.2 -0.5 56
2019-06-06 03:00:00 14.2 4 Noroeste 14 Noroeste 0 946.4 -0.3 50
2019-06-06 02:00:00 15.1 5 Noroeste 19 Noroeste 0 946.6 0 42
2019-06-06 01:00:00 17.7 8 Oeste 25 Oeste 0 946.7 0.6 37
2019-06-06 00:00:00 19.1 7 Oeste 16 Oeste 0 946.7 1.2 29
2019-06-05 23:00:00 19 5 Oeste 14 Oeste 0 946.6 1.2 29
2019-06-05 22:00:00 19.4 3 Oeste 21 Oeste 0 946.1 0.8 29
2019-06-05 21:00:00 20.6 11 Noroeste 30 Noroeste 0 945.5 0.3 27
2019-06-05 20:00:00 21.4 8 Noroeste 25 Noroeste 0 945.4 0 28
2019-06-05 19:00:00 21.9 14 Noroeste 35 Noroeste 0 945.3 -0.3 28
2019-06-05 18:00:00 22.2 12 Noroeste 34 Noroeste 0 945.2 -0.8 28
2019-06-05 17:00:00 21.6 15 Noroeste 35 Noroeste 0 945.4 -0.9 31
2019-06-05 16:00:00 21.4 11 Noroeste 32 Noroeste 0 945.6 -0.9 31
2019-06-05 15:00:00 20.9 11 Noroeste 31 Noroeste 0 946 -0.8 34
2019-06-05 14:00:00 19.3 16 Oeste 36 Noroeste 0 946.3 -0.3 35
2019-06-05 13:00:00 19.1 13 Noroeste 30 Noroeste 0 946.5 -0.1 37
2019-06-05 12:00:00 17.5 10 Noroeste 28 Noroeste 0 946.8 0.4 40
2019-06-05 11:00:00 15.5 15 Noroeste 36 Noroeste 0 946.6 0.9 43
2019-06-05 10:00:00 15.8 15 Oeste 35 Oeste 0 946.6 1.7 43
2019-06-05 09:00:00 14.8 13 Oeste 32 Oeste 0 946.4 2.1 47
2019-06-05 08:00:00 14.6 12 Oeste 32 Oeste 0 945.7 1.7 50
2019-06-05 07:00:00 14.9 12 Oeste 34 Noroeste 0 944.9 1.1 56
2019-06-05 06:00:00 16.7 13 Noroeste 38 Noroeste 0 944.3 0.3 59
2019-06-05 05:00:00 17.7 12 Oeste 33 Oeste 0 944 -0.3 63
2019-06-05 04:00:00 18.4 9 Oeste 34 Oeste 0 943.8 0.1 64
2019-06-05 03:00:00 18.6 11 Oeste 40 Oeste 0 944 0.3 64
2019-06-05 02:00:00 19.1 17 Oeste 37 Oeste 0 944.3 0.9 57
2019-06-05 01:00:00 20.1 10 Oeste 31 Noroeste 0 943.7 0.9 47
2019-06-05 00:00:00 22.1 14 Oeste 33 Oeste 0 943.7 1.6 41
2019-06-04 23:00:00 22.9 12 Oeste 31 Oeste 0 943.4 1.6 38
2019-06-04 22:00:00 23.9 9 Oeste 28 Noroeste 0 942.8 1 37
2019-06-04 21:00:00 26.5 12 Noroeste 35 Oeste 0 942.1 0 31
2019-06-04 20:00:00 27.3 14 Noroeste 37 Noroeste 0 941.8 -0.8 28
2019-06-04 19:00:00 29 14 Oeste 39 Noroeste 0 941.8 -1.4 26
2019-06-04 18:00:00 29.6 19 Noroeste 44 Noroeste 0 942.1 -1.9 24
2019-06-04 17:00:00 30.6 13 Noroeste 33 Noroeste 0 942.6 -2.3 23
2019-06-04 16:00:00 31.1 14 Noroeste 39 Oeste 0 943.2 -2.3 21
2019-06-04 15:00:00 29.7 13 Noroeste 35 Oeste 0 944 -1.8 21
2019-06-04 14:00:00 30.7 9 Oeste 33 Noroeste 0 944.9 -1.2 21
2019-06-04 13:00:00 28.7 11 Noroeste 28 Oeste 0 945.5 -1 22
2019-06-04 12:00:00 27.4 6 Nordeste 13 Nordeste 0 945.8 -0.5 26
2019-06-04 11:00:00 23.6 5 Nordeste 12 Nordeste 0 946.1 0.1 31
2019-06-04 10:00:00 20.1 5 Nordeste 10 Nordeste 0 946.5 0.5 34
2019-06-04 09:00:00 17.2 3 Nordeste 8 Nordeste 0 946.3 0.2 37
2019-06-04 08:00:00 17.6 0 Calma 9 Este 0 946 -0.2 37
2019-06-04 07:00:00 14.4 0 Calma 4 Sudeste 0 946 -0.7 40
2019-06-04 06:00:00 15.5 0 Calma 21 Sudeste 0 946.1 -0.9 37
2019-06-04 05:00:00 17.1 0 Calma 12 Este 0 946.2 -1.3 35
2019-06-04 04:00:00 18.4 0 Calma 8 Nordeste 0 946.7 -1.2 33
2019-06-04 03:00:00 20.2 0 Calma 6 Sudeste 0 947 -1 31
2019-06-04 02:00:00 20.8 3 Sur 6 Sur 0 947.5 0.2 29
2019-06-04 01:00:00 22 3 Sudoeste 9 Oeste 0 947.9 1 30
2019-06-04 00:00:00 22.6 3 Oeste 11 Sudoeste 0 948 1.6 27
2019-06-03 23:00:00 24.5 6 Oeste 13 Noroeste 0 947.3 1.1 24
2019-06-03 22:00:00 25.8 0 Calma 12 Norte 0 946.9 0.7 21
2019-06-03 21:00:00 30.3 6 Sudoeste 32 Oeste 0 946.4 -0.3 17
2019-06-03 20:00:00 30.6 9 Sudoeste 26 Oeste 0 946.2 -0.5 18
2019-06-03 19:00:00 32.3 11 Oeste 33 Oeste 0 946.2 -0.9 17
2019-06-03 18:00:00 32.1 15 Oeste 34 Oeste 0 946.7 -1.1 18
2019-06-03 17:00:00 33.1 12 Oeste 31 Oeste 0 946.7 -1.8 18
2019-06-03 16:00:00 34.4 6 Oeste 23 Noroeste 0 947.1 -1.9 18
2019-06-03 15:00:00 33.3 5 Nordeste 22 Noroeste 0 947.8 -1.6 19
2019-06-03 14:00:00 31.2 6 Noroeste 12 Noroeste 0 948.5 -1.3 21
2019-06-03 13:00:00 29.4 7 Nordeste 13 Nordeste 0 949 -0.9 27
2019-06-03 12:00:00 27 7 Nordeste 18 Nordeste 0 949.4 -0.5 30
2019-06-03 11:00:00 24 10 Nordeste 19 Este 0 949.8 -0.2 33
2019-06-03 10:00:00 21.4 9 Nordeste 20 Norte 0 949.9 0.4 36
2019-06-03 09:00:00 18.8 7 Nordeste 16 Norte 0 949.9 0.7 38
2019-06-03 08:00:00 17.4 0 Calma 8 Norte 0 950 0.4 40
2019-06-03 07:00:00 16.1 2 Nordeste 16 Norte 0 949.5 -0.3 40
2019-06-03 06:00:00 18.5 6 Este 13 Sudeste 0 949.2 -1 38
2019-06-03 05:00:00 19 5 Sudeste 15 Este 0 949.6 -0.4 36
2019-06-03 04:00:00 19.9 6 Sudeste 14 Este 0 949.8 -0.7 31
2019-06-03 03:00:00 20.8 9 Este 20 Sudeste 0 950.2 -0.1 28
2019-06-03 02:00:00 19.5 0 Calma 19 Sudeste 0 950 0.4 28
2019-06-03 01:00:00 22.2 3 Sudeste 12 Sudeste 0 950.5 1.7 25
2019-06-03 00:00:00 23 4 Oeste 10 Oeste 0 950.3 2.2 24
2019-06-02 23:00:00 23.6 3 Sudoeste 12 Noroeste 0 949.6 2 23
2019-06-02 22:00:00 24.9 2 Noroeste 16 Oeste 0 948.8 1.4 21
2019-06-02 21:00:00 29.1 10 Oeste 25 Oeste 0 948.1 0.5 19
2019-06-02 20:00:00 30.5 10 Oeste 23 Oeste 0 947.6 -0.3 20
2019-06-02 19:00:00 30.4 13 Oeste 28 Noroeste 0 947.4 -0.8 20
2019-06-02 18:00:00 32.8 9 Oeste 27 Oeste 0 947.6 -1.1 18
2019-06-02 17:00:00 33.8 3 Norte 18 Noroeste 0 947.9 -1.9 17
2019-06-02 16:00:00 32.5 5 Nordeste 15 Noroeste 0 948.2 -2.2 17
2019-06-02 15:00:00 30.6 6 Norte 18 Nordeste 0 948.7 -2 18
2019-06-02 14:00:00 30.2 5 Norte 17 Noroeste 0 949.8 -1 20
2019-06-02 13:00:00 27.7 9 Noroeste 19 Noroeste 0 950.4 -0.3 28
2019-06-02 12:00:00 26.4 4 Nordeste 18 Este 0 950.7 -0.1 33
2019-06-02 11:00:00 23.3 8 Este 19 Este 0 950.8 0.1 37
2019-06-02 10:00:00 19.7 9 Nordeste 27 Este 0 950.7 0.4 43
2019-06-02 09:00:00 18 12 Este 25 Sudeste 0 950.8 0.6 44
2019-06-02 08:00:00 15.8 8 Nordeste 26 Este 0 950.7 0.3 49
2019-06-02 07:00:00 15.2 10 Este 22 Este 0 950.3 -0.3 48
2019-06-02 06:00:00 16.1 8 Este 23 Este 0 950.2 -0.7 45
2019-06-02 05:00:00 15.9 3 Este 17 Sudeste 0 950.4 -0.7 44
2019-06-02 04:00:00 18 6 Sudeste 14 Sudeste 0 950.6 -0.5 40
2019-06-02 03:00:00 18 3 Sudeste 9 Este 0 950.9 -0.1 38
2019-06-02 02:00:00 18.6 3 Sudeste 14 Sudeste 0 951.1 0.6 38
2019-06-02 01:00:00 20 5 Sudeste 17 Este 0 951.1 1.6 35
2019-06-02 00:00:00 21 6 Sudeste 15 Sudeste 0 951 1.9 34
2019-06-01 23:00:00 21.9 5 Sudeste 12 Sudeste 0 950.5 1.9 33
2019-06-01 22:00:00 23.5 3 Sudoeste 6 Noroeste 0 949.5 1.2 31
2019-06-01 21:00:00 25 2 Norte 18 Norte 0 949.1 0.8 29
2019-06-01 20:00:00 28.6 7 Noroeste 21 Noroeste 0 948.6 0.1 25
2019-06-01 19:00:00 29.4 11 Noroeste 25 Noroeste 0 948.3 -0.9 24
2019-06-01 18:00:00 30.5 10 Noroeste 25 Noroeste 0 948.3 -1.4 22
2019-06-01 17:00:00 31.3 12 Oeste 24 Noroeste 0 948.5 -2 21
2019-06-01 16:00:00 32.5 4 Sudeste 18 Sudeste 0 949.2 -2 20
2019-06-01 15:00:00 31 4 Sudeste 24 Sudeste 0 949.7 -1.5 21
2019-06-01 14:00:00 28.7 5 Nordeste 17 Nordeste 0 950.5 -1 23
2019-06-01 13:00:00 28.2 3 Nordeste 18 Norte 0 951.2 -0.4 25
2019-06-01 12:00:00 26.3 8 Nordeste 19 Este 0 951.2 -0.4 30
2019-06-01 11:00:00 25 9 Sudeste 22 Este 0 951.5 -0.1 34
2019-06-01 10:00:00 21.4 8 Este 26 Este 0 951.6 0.4 38
2019-06-01 09:00:00 18.2 13 Este 26 Este 0 951.6 0.5 42
2019-06-01 08:00:00 18.6 11 Sudeste 28 Sudeste 0 951.6 0.8 40
2019-06-01 07:00:00 16 13 Sudeste 27 Sudeste 0 951.2 0.3 45
2019-06-01 06:00:00 17.2 10 Sudeste 21 Sudeste 0 951.1 -0.3 43
2019-06-01 05:00:00 17.4 7 Este 25 Sudeste 0 950.8 -0.9 40
2019-06-01 04:00:00 18.4 12 Este 24 Este 0 950.9 -1.1 38
2019-06-01 03:00:00 19.5 7 Sudeste 23 Sudeste 0 951.4 -0.3 37
2019-06-01 02:00:00 20.6 9 Sudeste 19 Sudeste 0 951.7 0.4 36
2019-06-01 01:00:00 21.3 10 Sudeste 20 Sudeste 0 952 1.2 35
2019-06-01 00:00:00 22 10 Sudeste 21 Sudeste 0 951.7 1.6 34
2019-05-31 23:00:00 22.7 6 Sudeste 13 Sudeste 0 951.3 1.6 32
2019-05-31 22:00:00 23.3 0 Calma 6 Oeste 0 950.8 1.5 32
2019-05-31 21:00:00 25.4 4 Noroeste 14 Norte 0 950.1 0.6 28
2019-05-31 20:00:00 28.8 8 Norte 17 Nordeste 0 949.7 -0.4 25
2019-05-31 19:00:00 29.8 5 Norte 20 Sudeste 0 949.3 -1.2 21
2019-05-31 18:00:00 31 10 Este 23 Este 0 949.5 -1.4 20
2019-05-31 17:00:00 31.5 5 Este 23 Sudeste 0 950.1 -1.4 21
2019-05-31 16:00:00 30.4 7 Norte 22 Nordeste 0 950.5 -1.3 20
2019-05-31 15:00:00 29.2 13 Nordeste 26 Nordeste 0 950.9 -1.1 21
2019-05-31 14:00:00 28.7 14 Nordeste 27 Este 0 951.5 -0.9 23
2019-05-31 13:00:00 27.2 9 Este 29 Sudeste 0 951.8 -0.7 24
2019-05-31 12:00:00 25.5 10 Nordeste 26 Norte 0 952 -0.6 28
2019-05-31 11:00:00 23.7 9 Nordeste 26 Este 0 952.4 -0.1 33
2019-05-31 10:00:00 20.6 9 Este 23 Sudeste 0 952.5 0.3 40
2019-05-31 09:00:00 17.7 11 Este 28 Este 0 952.6 0.4 44
2019-05-31 08:00:00 15.7 13 Sudeste 30 Este 0 952.5 0 47
2019-05-31 07:00:00 15.2 9 Sudeste 27 Sudeste 0 952.2 -0.4 48
2019-05-31 06:00:00 15.3 11 Sudeste 26 Sudeste 0 952.2 -0.8 48
2019-05-31 05:00:00 16 10 Sudeste 22 Sudeste 0 952.5 -0.9 46
2019-05-31 04:00:00 17.7 10 Sudeste 23 Sudeste 0 952.6 -1.2 44
2019-05-31 03:00:00 18.2 13 Sudeste 25 Sudeste 0 953 -0.8 44
2019-05-31 02:00:00 18.6 10 Sudeste 24 Sudeste 0 953.4 -0.2 43
2019-05-31 01:00:00 19.3 10 Sudeste 25 Este 0 953.8 1.4 43
2019-05-31 00:00:00 20 9 Sudeste 21 Este 0 953.8 1.9 44
2019-05-30 23:00:00 19.7 6 Sudeste 14 Sudeste 0 953.6 2.5 45
2019-05-30 22:00:00 21.5 3 Oeste 8 Noroeste 0 952.4 1.6 41
2019-05-30 21:00:00 21.8 5 Noroeste 14 Norte 0 951.9 0.9 37
2019-05-30 20:00:00 25 8 Norte 18 Noroeste 0 951.1 -0.1 31
2019-05-30 19:00:00 27.5 8 Noroeste 21 Noroeste 0 950.8 -0.5 27
2019-05-30 18:00:00 29.4 8 Noroeste 22 Noroeste 0 951 -1 25
2019-05-30 17:00:00 30.3 5 Sudeste 23 Norte 0 951.2 -1.5 23
2019-05-30 16:00:00 30.2 7 Este 27 Sudeste 0 951.3 -2 24
2019-05-30 15:00:00 29.8 5 Sudeste 26 Nordeste 0 952 -1.6 24
2019-05-30 14:00:00 26.1 10 Nordeste 22 Norte 0 952.7 -0.9 31
2019-05-30 13:00:00 25.2 6 Nordeste 19 Nordeste 0 953.3 -0.3 36
2019-05-30 12:00:00 23.6 9 Nordeste 20 Este 0 953.6 0.1 40
2019-05-30 11:00:00 22.1 6 Este 22 Este 0 953.6 0.3 44
2019-05-30 10:00:00 20 8 Este 21 Este 0 953.6 0.8 50
2019-05-30 09:00:00 18.2 6 Sudeste 19 Este 0 953.5 1.1 57
2019-05-30 08:00:00 16.4 5 Este 14 Este 0 953.3 0.9 63
2019-05-30 07:00:00 15.2 7 Este 17 Sudeste 0 952.8 0.6 65
2019-05-30 06:00:00 15.8 4 Sudeste 14 Este 0 952.4 0 62
2019-05-30 05:00:00 16 6 Sudeste 14 Sudeste 0 952.4 -0.2 60
2019-05-30 04:00:00 16.4 5 Sudeste 17 Sudeste 0 952.2 -0.3 57
2019-05-30 03:00:00 17.1 4 Sudeste 16 Sudeste 0 952.4 0.3 54
2019-05-30 02:00:00 18.2 6 Sudeste 17 Sudeste 0 952.6 1.6 50
2019-05-30 01:00:00 19.1 4 Sudeste 11 Sudeste 0 952.5 2.6 47
2019-05-30 00:00:00 19.5 0 Calma 13 Oeste 0 952.1 3.1 47
2019-05-29 23:00:00 20 2 Oeste 11 Noroeste 0 951 2.4 47
2019-05-29 22:00:00 22.1 3 Noroeste 13 Noroeste 0 949.9 1.6 41
2019-05-29 21:00:00 26.8 5 Noroeste 21 Oeste 0 949 0.7 27
2019-05-29 20:00:00 28.9 9 Oeste 27 Noroeste 0 948.6 0.1 25
2019-05-29 19:00:00 29.6 7 Oeste 25 Oeste 0 948.3 -0.4 25
2019-05-29 18:00:00 29.6 9 Oeste 29 Noroeste 0 948.3 -0.7 28
2019-05-29 17:00:00 30.1 12 Noroeste 33 Noroeste 0 948.5 -0.9 25
2019-05-29 16:00:00 29.6 8 Oeste 28 Oeste 0 948.7 -1.2 29
2019-05-29 15:00:00 29.7 10 Oeste 22 Noroeste 0 949 -1.1 30
2019-05-29 14:00:00 28.8 4 Oeste 21 Oeste 0 949.4 -0.6 31
2019-05-29 13:00:00 28.9 4 Oeste 22 Norte 0 949.9 0 32
2019-05-29 12:00:00 26.8 5 Norte 13 Nordeste 0 950.1 0.5 34
2019-05-29 11:00:00 25.2 4 Este 15 Nordeste 0 950 1 37
2019-05-29 10:00:00 22.9 5 Nordeste 14 Norte 0 949.9 1.7 39
2019-05-29 09:00:00 21.2 0 Calma 6 Este 0 949.6 2 44
2019-05-29 08:00:00 18.9 0 Calma 5 Nordeste 0 949 1.8 44
2019-05-29 07:00:00 18.7 0 Calma 5 Sudoeste 0 948.2 1.3 44
2019-05-29 06:00:00 19.1 0 Calma 3 Oeste 0 947.6 0.9 43
2019-05-29 05:00:00 20.7 2 Sudeste 7 Sudoeste 0 947.2 0.6 38
2019-05-29 04:00:00 21.7 0 Calma 13 Noroeste 0 946.9 0 35
2019-05-29 03:00:00 22.6 4 Noroeste 10 Noroeste 0 946.7 0.3 33
2019-05-29 02:00:00 25.5 8 Oeste 20 Oeste 0 946.6 1.2 30
2019-05-29 01:00:00 24.6 7 Noroeste 19 Noroeste 0 946.9 1.9 30
2019-05-29 00:00:00 26 8 Oeste 25 Noroeste 0 946.4 2 28
2019-05-28 23:00:00 27.6 4 Oeste 13 Oeste 0 945.4 1.5 24
2019-05-28 22:00:00 28.9 6 Oeste 14 Oeste 0 945 1 22
2019-05-28 21:00:00 30 5 Oeste 21 Noroeste 0 944.4 0.5 22
2019-05-28 20:00:00 30.8 11 Noroeste 28 Noroeste 0 943.9 0.2 21
2019-05-28 19:00:00 31.2 14 Noroeste 30 Noroeste 0 944 0.1 21
2019-05-28 18:00:00 31.5 15 Norte 29 Norte 0 943.9 0.1 20
2019-05-28 17:00:00 31.2 14 Noroeste 35 Norte 0 943.7 -0.6 19
2019-05-28 16:00:00 32.3 12 Noroeste 31 Norte 0 943.9 -0.4 19
2019-05-28 15:00:00 30.7 11 Noroeste 31 Noroeste 0 943.8 -0.7 21
2019-05-28 14:00:00 31 14 Noroeste 31 Norte 0 944.3 -0.3 22
2019-05-28 13:00:00 30.1 9 Oeste 21 Noroeste 0 944.3 -0.4 23
2019-05-28 12:00:00 28 6 Nordeste 14 Nordeste 0 944.5 0.1 30
2019-05-28 11:00:00 25.2 6 Nordeste 12 Nordeste 0 944.6 0.4 33
2019-05-28 10:00:00 23.2 6 Nordeste 12 Este 0 944.7 0.7 36
2019-05-28 09:00:00 21 6 Este 18 Este 0 944.4 0.6 38
2019-05-28 08:00:00 18.8 2 Norte 17 Este 0 944.2 0.3 43
2019-05-28 07:00:00 19 8 Este 18 Este 0 944 0.3 41
2019-05-28 06:00:00 20 3 Sudeste 9 Sudeste 0 943.8 0.3 38
2019-05-28 05:00:00 20.7 4 Sudoeste 14 Noroeste 0 943.9 -0.2 36
2019-05-28 04:00:00 22.1 8 Noroeste 27 Oeste 0 943.7 -0.7 31
2019-05-28 03:00:00 24.7 9 Sudoeste 32 Oeste 0 943.5 -1 30
2019-05-28 02:00:00 25 10 Oeste 26 Oeste 0 944.1 0 30
2019-05-28 01:00:00 25.1 7 Oeste 19 Oeste 0 944.4 1.3 30
2019-05-28 00:00:00 25.9 8 Sudoeste 20 Oeste 0 944.5 1.4 27
2019-05-27 23:00:00 24.3 6 Noroeste 23 Sudoeste 0 944.1 1.3 26
2019-05-27 22:00:00 27.5 4 Oeste 14 Oeste 0 943.1 0.2 22
2019-05-27 21:00:00 28.7 4 Oeste 23 Noroeste 0 943.1 0.3 21
2019-05-27 20:00:00 30 11 Oeste 25 Oeste 0 942.8 -0.4 20
2019-05-27 19:00:00 29.5 13 Noroeste 30 Noroeste 0 942.9 -1 20
2019-05-27 18:00:00 30.8 9 Noroeste 26 Noroeste 0 942.8 -1.5 20
2019-05-27 17:00:00 30.1 7 Oeste 23 Noroeste 0 943.2 -1.6 20
2019-05-27 16:00:00 30.5 8 Noroeste 22 Noroeste 0 943.9 -1.7 20
2019-05-27 15:00:00 30.6 5 Oeste 25 Noroeste 0 944.3 -1.7 21
2019-05-27 14:00:00 29.4 7 Noroeste 24 Norte 0 944.8 -1.5 22
2019-05-27 13:00:00 28.8 7 Noroeste 15 Norte 0 945.6 -0.9 24
2019-05-27 12:00:00 24.8 4 Nordeste 10 Este 0 946 -0.3 28
2019-05-27 11:00:00 21.9 4 Nordeste 19 Norte 0 946.3 -0.1 32
2019-05-27 10:00:00 19.8 9 Nordeste 22 Este 0 946.5 0.3 35
2019-05-27 09:00:00 16.8 11 Nordeste 27 Sudeste 0 946.3 0.2 40
2019-05-27 08:00:00 15.6 11 Este 23 Este 0 946.4 0.5 42
2019-05-27 07:00:00 15.1 3 Nordeste 12 Sudeste 0 946.2 -0.2 44
2019-05-27 06:00:00 15.7 0 Calma 6 Sudeste 0 946.1 -0.4 44
2019-05-27 05:00:00 15.6 0 Calma 7 Oeste 0 945.9 -1 47
2019-05-27 04:00:00 17.3 2 Oeste 15 Oeste 0 946.4 -0.7 43
2019-05-27 03:00:00 17.5 3 Noroeste 10 Noroeste 0 946.5 -0.6 38
2019-05-27 02:00:00 19 4 Noroeste 10 Oeste 0 946.9 0.1 34
2019-05-27 01:00:00 19.5 2 Sudeste 5 Sur 0 947.1 1 29
2019-05-27 00:00:00 21.7 0 Calma 10 Sudoeste 0 947.1 1.4 24